Airfield :
LOGIN :

Register | Disclaimer

   EN    FR    IT 

 










Legend :    VFR   Marginal VFR   IFR   Intensive IFR   Very Intensive IFR
Visi :
Ceiling :
>= 8 km
>= 3000ft
5 to 8 km
1000 to 3000 ft
1500m to 5 km
500 to 1000 ft
800 to 1500m
200 to 500 ft
< 800m
< 200 ft
Symbols :   Thunderstorms  Fog  Heavy snow  Heavy precipitations  Wind > 20 kt
SIGMETs :     Misc.  Thunderstorms  Icing  Turbulence  Mountain Waves  Volcanic Ashes






- Airport Elevation : 495 ft
- IATA code : BUD


LHBP - Budapest Ferihegy

CURRENT METAR :
  • 161430Z 30012KT 9999 FEW033 M01/M07 Q1018 NOSIG

EXPIRED METARs :
  • 161400Z 31011KT 9999 FEW033 M00/M07 Q1018 NOSIG
  • 161330Z 31012KT 9999 SCT032 M00/M07 Q1018 NOSIG
  • 161300Z 31011KT 9999 SCT034 M00/M07 Q1018 NOSIG
  • 161230Z 31011KT 280V340 9999 SCT032 M00/M07 Q1018 NOSIG
  • 161200Z 31011KT 9999 FEW030 M00/M07 Q1019 NOSIG
  • 161130Z 30010KT CAVOK M01/M07 Q1019 NOSIG

TAF TAF LHBP
Valid from the 16 at 12:00 until the 17 at 12:00 UTC


161115Z 1612/1712 31012KT 9999 BKN025
TEMPO 1618/1711 28006KT -SN BKN018
PROB40
TEMPO 1621/1709 2000 SHSN SN BKN004 OVC015



MET'MAP, your aeronautical weather chart ! - Copyright ORBIFLY December 2007 - Disclaimer

ORBIFLY MET'MAP TEAM :

Programming & Development : Alexandra Zaïnal
Concept & original design : Baudouin d'Aumeries
Assistance for programming : Marc-Olivier Méhu
Technical & hardware support : Manuel Goepfert

Contact : metmap@orbifly.com




SOURCES & CREDITS :

   NOAA